Time,TemperatureF,DewpointF,PressureIn,WindDirection,WindDirectionDegrees,WindSpeedMPH,WindSpeedGustMPH,Humidity,HourlyPrecipIn,Conditions,Clouds,dailyrainin,SoftwareType,DateUTC
2013-04-13 00:00:00,78.4,71.0,29.59,WSW,248,6.9,7.8,78,0.00,,---,0.16,VWS V13.01,2013-04-13 04:00:00,
2013-04-13 00:05:00,78.3,70.8,29.58,South,180,6.7,7.2,78,0.00,,---,0.16,VWS V13.01,2013-04-13 04:05:00,
2013-04-13 00:10:00,78.3,70.8,29.58,South,180,6.7,6.7,78,0.00,,---,0.16,VWS V13.01,2013-04-13 04:10:00,
2013-04-13 00:20:00,78.1,70.7,29.58,SSW,202,5.4,5.4,78,0.00,,---,0.16,VWS V13.01,2013-04-13 04:20:00,
2013-04-13 00:25:00,78.1,70.7,29.58,South,180,2.0,5.4,78,0.00,,---,0.16,VWS V13.01,2013-04-13 04:25:00,
2013-04-13 00:35:00,78.1,70.7,29.58,South,180,2.5,4.0,78,0.00,,---,0.16,VWS V13.01,2013-04-13 04:35:00,
2013-04-13 00:40:00,78.1,70.7,29.58,South,180,0.7,5.4,78,0.00,,---,0.16,VWS V13.01,2013-04-13 04:40:00,
2013-04-13 00:50:00,78.1,70.7,29.58,South,180,3.6,3.6,78,0.00,,---,0.16,VWS V13.01,2013-04-13 04:50:00,
2013-04-13 00:55:00,78.1,70.7,29.57,South,180,0.0,3.6,78,0.00,,---,0.16,VWS V13.01,2013-04-13 04:55:00,
2013-04-13 01:00:00,78.1,70.7,29.57,SSW,202,1.6,1.6,78,0.00,,---,0.16,VWS V13.01,2013-04-13 05:00:00,
2013-04-13 01:10:00,77.9,70.5,29.57,South,180,7.4,7.4,78,0.00,,---,0.16,VWS V13.01,2013-04-13 05:10:00,
2013-04-13 01:15:00,77.9,70.9,29.57,South,180,5.1,7.4,79,0.00,,---,0.16,VWS V13.01,2013-04-13 05:15:00,
2013-04-13 01:25:00,77.7,70.7,29.57,SSW,202,0.7,3.8,79,0.00,,---,0.16,VWS V13.01,2013-04-13 05:25:00,
2013-04-13 01:35:00,77.7,70.7,29.57,South,180,1.3,4.7,79,0.00,,---,0.16,VWS V13.01,2013-04-13 05:35:00,
2013-04-13 01:45:00,77.7,70.7,29.57,South,180,2.9,2.9,79,0.00,,---,0.16,VWS V13.01,2013-04-13 05:45:00,
2013-04-13 01:55:00,77.7,70.3,29.57,SW,225,2.0,6.5,78,0.00,,---,0.16,VWS V13.01,2013-04-13 05:55:00,
2013-04-13 02:00:00,77.7,70.7,29.57,SSW,202,3.6,3.6,79,0.00,,---,0.16,VWS V13.01,2013-04-13 06:00:00,
2013-04-13 02:10:00,77.5,70.5,29.56,SSW,202,3.1,5.1,79,0.00,,---,0.16,VWS V13.01,2013-04-13 06:10:00,
2013-04-13 02:25:00,77.5,70.5,29.55,South,180,3.4,3.4,79,0.00,,---,0.16,VWS V13.01,2013-04-13 06:25:00,
2013-04-13 02:30:00,77.5,70.5,29.56,SSW,202,7.2,7.2,79,0.00,,---,0.16,VWS V13.01,2013-04-13 06:30:00,
2013-04-13 02:35:00,77.5,70.5,29.56,South,180,0.4,7.2,79,0.00,,---,0.16,VWS V13.01,2013-04-13 06:35:00,
2013-04-13 02:45:00,77.5,70.5,29.56,South,180,4.0,4.0,79,0.00,,---,0.16,VWS V13.01,2013-04-13 06:45:00,
2013-04-13 02:55:00,77.5,70.5,29.56,South,180,5.6,9.6,79,0.00,,---,0.16,VWS V13.01,2013-04-13 06:55:00,
2013-04-13 03:00:00,77.5,70.5,29.56,SSE,158,0.4,5.6,79,0.00,,---,0.16,VWS V13.01,2013-04-13 07:00:00,
2013-04-13 03:10:00,77.5,70.5,29.55,SSE,158,3.8,4.9,79,0.00,,---,0.16,VWS V13.01,2013-04-13 07:10:00,
2013-04-13 03:20:00,77.5,70.5,29.55,South,180,1.3,2.9,79,0.00,,---,0.16,VWS V13.01,2013-04-13 07:20:00,
2013-04-13 03:30:00,77.5,70.5,29.55,SSE,158,2.2,2.2,79,0.00,,---,0.16,VWS V13.01,2013-04-13 07:30:00,
2013-04-13 03:35:00,77.5,70.5,29.55,ESE,112,0.0,7.4,79,0.00,,---,0.16,VWS V13.01,2013-04-13 07:35:00,
2013-04-13 03:45:00,77.5,70.9,29.54,SSE,158,4.5,6.3,80,0.00,,---,0.16,VWS V13.01,2013-04-13 07:45:00,
2013-04-13 03:55:00,77.5,70.9,29.53,SSE,158,7.4,7.4,80,0.00,,---,0.16,VWS V13.01,2013-04-13 07:55:00,
2013-04-13 04:00:00,77.5,70.9,29.53,South,180,4.5,7.4,80,0.00,,---,0.16,VWS V13.01,2013-04-13 08:00:00,
2013-04-13 04:15:00,77.5,70.9,29.53,South,180,4.0,12.3,80,0.00,,---,0.16,VWS V13.01,2013-04-13 08:15:00,
2013-04-13 04:25:00,77.5,70.9,29.53,South,180,7.8,9.4,80,0.00,,---,0.16,VWS V13.01,2013-04-13 08:25:00,
2013-04-13 04:35:00,77.4,70.7,29.52,SSE,158,7.2,7.2,80,0.00,,---,0.16,VWS V13.01,2013-04-13 08:35:00,
2013-04-13 04:45:00,77.4,70.7,29.52,SSE,158,6.7,12.8,80,0.00,,---,0.16,VWS V13.01,2013-04-13 08:45:00,
2013-04-13 04:55:00,77.4,70.7,29.52,South,180,8.5,8.5,80,0.00,,---,0.16,VWS V13.01,2013-04-13 08:55:00,
2013-04-13 05:00:00,77.5,70.9,29.53,South,180,3.8,8.5,80,0.00,,---,0.16,VWS V13.01,2013-04-13 09:00:00,
2013-04-13 05:20:00,77.5,70.9,29.52,SSW,202,11.4,11.4,80,0.00,,---,0.16,VWS V13.01,2013-04-13 09:20:00,
2013-04-13 05:35:00,77.4,70.3,29.51,South,180,12.8,12.8,79,0.00,,---,0.16,VWS V13.01,2013-04-13 09:35:00,
2013-04-13 05:45:00,77.4,70.3,29.52,SSW,202,10.1,10.1,79,0.00,,---,0.16,VWS V13.01,2013-04-13 09:45:00,
2013-04-13 05:55:00,77.2,69.8,29.52,SSW,202,0.0,9.4,78,0.00,,---,0.16,VWS V13.01,2013-04-13 09:55:00,
2013-04-13 06:00:00,77.2,69.8,29.52,South,180,6.3,9.6,78,0.00,,---,0.16,VWS V13.01,2013-04-13 10:00:00,
2013-04-13 06:15:00,77.2,70.2,29.52,SSW,202,5.4,9.0,79,0.00,,---,0.16,VWS V13.01,2013-04-13 10:15:00,
2013-04-13 06:20:00,77.2,69.8,29.52,SSW,202,7.2,11.4,78,0.00,,---,0.16,VWS V13.01,2013-04-13 10:20:00,
2013-04-13 06:35:00,76.8,69.1,29.52,South,180,3.1,6.5,77,0.00,,---,0.16,VWS V13.01,2013-04-13 10:35:00,
2013-04-13 06:51:00,76.6,68.9,29.52,SW,225,8.1,9.8,77,0.00,,---,0.16,VWS V13.01,2013-04-13 10:51:00,
2013-04-13 07:00:00,76.5,68.7,29.53,SSW,202,3.4,3.4,77,0.00,,---,0.16,VWS V13.01,2013-04-13 11:00:00,
2013-04-13 07:10:00,76.3,68.6,29.52,South,180,3.4,8.1,77,0.00,,---,0.16,VWS V13.01,2013-04-13 11:10:00,
2013-04-13 07:15:00,76.3,68.6,29.52,South,180,8.1,8.1,77,0.00,,---,0.16,VWS V13.01,2013-04-13 11:15:00,
2013-04-13 07:25:00,76.6,68.9,29.53,SSW,202,5.4,8.3,77,0.00,,---,0.16,VWS V13.01,2013-04-13 11:25:00,
2013-04-13 07:30:00,76.6,68.9,29.53,SSW,202,5.4,5.4,77,0.00,,---,0.16,VWS V13.01,2013-04-13 11:30:00,
2013-04-13 07:35:00,76.6,68.9,29.53,South,180,5.4,7.4,77,0.00,,---,0.16,VWS V13.01,2013-04-13 11:35:00,
2013-04-13 07:40:00,76.6,68.9,29.53,South,180,5.4,5.4,77,0.00,,---,0.16,VWS V13.01,2013-04-13 11:40:00,
2013-04-13 07:50:00,76.8,69.8,29.53,South,180,7.4,11.9,79,0.00,,---,0.16,VWS V13.01,2013-04-13 11:50:00,
2013-04-13 08:00:00,77.4,70.3,29.54,SW,225,4.7,5.6,79,0.00,,---,0.16,VWS V13.01,2013-04-13 12:00:00,
2013-04-13 08:10:00,77.5,70.5,29.54,South,180,1.8,7.6,79,0.00,,---,0.16,VWS V13.01,2013-04-13 12:10:00,
2013-04-13 08:20:00,78.1,70.7,29.54,South,180,5.6,7.8,78,0.00,,---,0.16,VWS V13.01,2013-04-13 12:20:00,
2013-04-13 08:30:00,78.4,71.0,29.54,SSW,202,10.3,10.3,78,0.00,,---,0.16,VWS V13.01,2013-04-13 12:30:00,
2013-04-13 08:45:00,79.9,71.6,29.55,SW,225,2.7,8.7,76,0.00,,---,0.16,VWS V13.01,2013-04-13 12:45:00,
2013-04-13 08:50:00,80.4,72.2,29.55,SSW,202,6.9,7.4,76,0.00,,---,0.16,VWS V13.01,2013-04-13 12:50:00,
2013-04-13 08:55:00,80.4,72.2,29.55,SSW,202,12.1,12.1,76,0.00,,---,0.16,VWS V13.01,2013-04-13 12:55:00,
2013-04-13 09:05:00,80.4,71.8,29.56,SSE,158,4.9,12.1,75,0.00,,---,0.16,VWS V13.01,2013-04-13 13:05:00,
2013-04-13 09:16:00,80.4,71.8,29.57,SSW,202,3.8,6.5,75,0.00,,---,0.16,VWS V13.01,2013-04-13 13:16:00,
2013-04-13 09:31:00,80.4,71.8,29.58,SW,225,6.9,6.9,75,0.00,,---,0.16,VWS V13.01,2013-04-13 13:31:00,
2013-04-13 09:40:00,81.0,71.9,29.58,WSW,248,5.6,5.6,74,0.00,,---,0.16,VWS V13.01,2013-04-13 13:40:00,
2013-04-13 09:55:00,81.1,71.7,29.59,WSW,248,6.0,6.0,73,0.00,,---,0.16,VWS V13.01,2013-04-13 13:55:00,
2013-04-13 10:00:00,81.3,71.8,29.60,WSW,248,5.6,6.0,73,0.00,,---,0.16,VWS V13.01,2013-04-13 14:00:00,
2013-04-13 10:10:00,81.1,71.3,29.60,NNW,338,8.1,8.1,72,0.00,,---,0.16,VWS V13.01,2013-04-13 14:10:00,
2013-04-13 10:15:00,80.8,71.3,29.60,WNW,292,2.2,8.1,73,0.00,,---,0.16,VWS V13.01,2013-04-13 14:15:00,
2013-04-13 10:25:00,81.3,71.8,29.60,WNW,292,1.6,1.6,73,0.00,,---,0.16,VWS V13.01,2013-04-13 14:25:00,
2013-04-13 10:35:00,81.5,71.6,29.60,West,270,0.7,0.7,72,0.00,,---,0.16,VWS V13.01,2013-04-13 14:35:00,
2013-04-13 10:50:00,82.2,72.3,29.60,NNW,338,0.0,0.0,72,0.00,,---,0.16,VWS V13.01,2013-04-13 14:50:00,
2013-04-13 10:55:00,82.2,72.3,29.60,NNW,338,0.0,0.0,72,0.00,,---,0.16,VWS V13.01,2013-04-13 14:55:00,
2013-04-13 11:05:00,82.4,72.1,29.61,NW,315,1.3,3.6,71,0.00,,---,0.16,VWS V13.01,2013-04-13 15:05:00,
2013-04-13 11:15:00,82.2,71.9,29.60,NW,315,0.4,0.4,71,0.00,,---,0.16,VWS V13.01,2013-04-13 15:15:00,
2013-04-13 11:25:00,82.9,72.2,29.60,West,270,0.0,3.8,70,0.00,,---,0.16,VWS V13.01,2013-04-13 15:25:00,
2013-04-13 11:35:00,82.9,72.2,29.61,SE,135,0.0,0.0,70,0.00,,---,0.16,VWS V13.01,2013-04-13 15:35:00,
2013-04-13 11:40:00,82.9,72.2,29.61,SE,135,0.0,0.0,70,0.00,,---,0.16,VWS V13.01,2013-04-13 15:40:00,
2013-04-13 11:50:00,82.0,70.9,29.61,SE,135,0.0,6.3,69,0.00,,---,0.16,VWS V13.01,2013-04-13 15:50:00,
2013-04-13 12:00:00,81.5,70.4,29.60,ESE,112,0.0,0.7,69,0.00,,---,0.16,VWS V13.01,2013-04-13 16:00:00,
2013-04-13 12:05:00,81.5,70.4,29.60,South,180,2.0,2.0,69,0.00,,---,0.16,VWS V13.01,2013-04-13 16:05:00,
2013-04-13 12:15:00,80.8,70.5,29.60,SE,135,0.0,2.2,71,0.00,,---,0.16,VWS V13.01,2013-04-13 16:15:00,
2013-04-13 12:25:00,80.8,70.9,29.60,SW,225,0.0,4.0,72,0.00,,---,0.16,VWS V13.01,2013-04-13 16:25:00,
2013-04-13 12:35:00,80.6,71.2,29.60,SSW,202,0.0,2.0,73,0.00,,---,0.16,VWS V13.01,2013-04-13 16:35:00,
2013-04-13 12:40:00,80.6,71.2,29.60,SSW,202,3.6,3.6,73,0.00,,---,0.16,VWS V13.01,2013-04-13 16:40:00,
2013-04-13 12:45:00,80.6,71.2,29.60,South,180,10.7,10.7,73,0.00,,---,0.16,VWS V13.01,2013-04-13 16:45:00,
2013-04-13 12:55:00,80.4,71.0,29.59,SSW,202,5.4,8.5,73,0.00,,---,0.16,VWS V13.01,2013-04-13 16:55:00,
2013-04-13 13:05:00,79.5,69.7,29.60,SSW,202,8.7,8.7,72,0.00,,---,0.16,VWS V13.01,2013-04-13 17:05:00,
2013-04-13 13:10:00,79.0,69.2,29.60,SSW,202,8.7,8.7,72,0.08,,---,0.24,VWS V13.01,2013-04-13 17:10:00,
2013-04-13 13:20:00,77.7,69.2,29.59,SE,135,1.3,5.4,75,0.18,,---,0.35,VWS V13.01,2013-04-13 17:20:00,
2013-04-13 13:25:00,77.5,69.0,29.59,SE,135,1.3,1.3,75,0.18,,---,0.35,VWS V13.01,2013-04-13 17:25:00,
2013-04-13 13:35:00,77.2,69.0,29.58,SE,135,0.0,1.3,76,0.20,,---,0.37,VWS V13.01,2013-04-13 17:35:00,
2013-04-13 13:45:00,78.4,71.0,29.59,SE,135,0.0,0.7,78,0.24,,---,0.41,VWS V13.01,2013-04-13 17:45:00,
2013-04-13 13:55:00,80.4,72.9,29.58,SSE,158,1.8,6.0,78,0.24,,---,0.41,VWS V13.01,2013-04-13 17:55:00,
2013-04-13 14:05:00,81.3,73.4,29.57,SSE,158,0.0,0.0,77,0.20,,---,0.41,VWS V13.01,2013-04-13 18:05:00,
2013-04-13 14:10:00,81.3,73.4,29.58,ESE,112,1.3,1.3,77,0.16,,---,0.41,VWS V13.01,2013-04-13 18:10:00,
2013-04-13 14:20:00,82.2,73.5,29.58,SSW,202,0.0,0.2,75,0.06,,---,0.41,VWS V13.01,2013-04-13 18:20:00,
2013-04-13 14:30:00,83.5,73.9,29.56,South,180,0.0,0.0,73,0.06,,---,0.41,VWS V13.01,2013-04-13 18:30:00,
2013-04-13 14:35:00,83.5,73.9,29.56,South,180,0.0,0.0,73,0.04,,---,0.41,VWS V13.01,2013-04-13 18:35:00,
2013-04-13 14:40:00,83.5,73.5,29.56,SW,225,1.6,1.6,72,0.00,,---,0.41,VWS V13.01,2013-04-13 18:40:00,
2013-04-13 14:45:00,83.5,73.5,29.55,South,180,6.3,6.3,72,0.00,,---,0.41,VWS V13.01,2013-04-13 18:45:00,
2013-04-13 14:50:00,82.9,73.0,29.55,SSW,202,1.6,6.3,72,0.00,,---,0.41,VWS V13.01,2013-04-13 18:50:00,
2013-04-13 14:55:00,82.9,73.0,29.55,SSW,202,1.6,1.6,72,0.00,,---,0.41,VWS V13.01,2013-04-13 18:55:00,
2013-04-13 15:00:00,82.2,72.3,29.55,SSE,158,0.0,4.3,72,0.00,,---,0.41,VWS V13.01,2013-04-13 19:00:00,
2013-04-13 15:10:00,80.8,71.3,29.56,SSE,158,3.4,3.4,73,0.00,,---,0.41,VWS V13.01,2013-04-13 19:10:00,
2013-04-13 15:20:00,79.9,70.5,29.58,SE,135,3.6,3.6,73,0.00,,---,0.41,VWS V13.01,2013-04-13 19:20:00,
2013-04-13 15:30:00,79.5,70.9,29.58,SE,135,2.5,2.5,75,0.00,,---,0.41,VWS V13.01,2013-04-13 19:30:00,
2013-04-13 15:40:00,79.2,70.6,29.57,East,90,0.0,3.6,75,0.00,,---,0.41,VWS V13.01,2013-04-13 19:40:00,
2013-04-13 15:50:00,79.0,70.4,29.57,East,90,0.0,0.0,75,0.00,,---,0.41,VWS V13.01,2013-04-13 19:50:00,
2013-04-13 16:00:00,79.0,70.4,29.56,North,0,1.1,4.7,75,0.02,,---,0.26,VWS V13.01,2013-04-13 20:00:00,
2013-04-13 16:05:00,79.0,70.4,29.56,NE,45,2.0,2.0,75,0.02,,---,0.26,VWS V13.01,2013-04-13 20:05:00,
2013-04-13 16:15:00,78.4,69.9,29.55,WSW,248,0.0,0.0,75,0.02,,---,0.26,VWS V13.01,2013-04-13 20:15:00,
2013-04-13 16:25:00,78.3,69.3,29.54,NNW,338,0.0,0.0,74,0.02,,---,0.26,VWS V13.01,2013-04-13 20:25:00,
2013-04-13 16:30:00,78.1,69.5,29.53,West,270,0.0,0.0,75,0.02,,---,0.26,VWS V13.01,2013-04-13 20:30:00,
2013-04-13 16:40:00,77.9,69.3,29.54,SW,225,0.0,0.4,75,0.02,,---,0.26,VWS V13.01,2013-04-13 20:40:00,
2013-04-13 16:50:00,77.5,69.0,29.54,WSW,248,0.0,0.0,75,0.00,,---,0.26,VWS V13.01,2013-04-13 20:50:00,
2013-04-13 17:00:00,77.5,69.0,29.54,WSW,248,0.0,0.0,75,0.00,,---,0.26,VWS V13.01,2013-04-13 21:00:00,
2013-04-13 17:10:00,77.5,69.0,29.55,North,0,2.5,4.7,75,0.00,,---,0.26,VWS V13.01,2013-04-13 21:10:00,
2013-04-13 17:15:00,77.5,69.0,29.55,North,0,2.5,2.5,75,0.00,,---,0.26,VWS V13.01,2013-04-13 21:15:00,
2013-04-13 17:20:00,77.2,68.7,29.53,North,0,0.0,2.5,75,0.00,,---,0.26,VWS V13.01,2013-04-13 21:20:00,
2013-04-13 17:30:00,77.2,68.7,29.54,North,0,0.0,1.3,75,0.00,,---,0.26,VWS V13.01,2013-04-13 21:30:00,
2013-04-13 17:35:00,77.0,68.5,29.55,North,0,0.0,0.9,75,0.00,,---,0.26,VWS V13.01,2013-04-13 21:35:00,
2013-04-13 17:45:00,76.8,68.7,29.54,NNW,338,0.0,0.0,76,0.00,,---,0.26,VWS V13.01,2013-04-13 21:45:00,
2013-04-13 17:50:00,76.8,68.7,29.54,NNW,338,0.0,0.0,76,0.00,,---,0.26,VWS V13.01,2013-04-13 21:50:00,
2013-04-13 18:00:00,76.8,69.1,29.53,West,270,0.0,0.0,77,0.00,,---,0.26,VWS V13.01,2013-04-13 22:00:00,
2013-04-13 18:10:00,76.8,68.7,29.54,WNW,292,0.0,0.0,76,0.00,,---,0.26,VWS V13.01,2013-04-13 22:10:00,
2013-04-13 18:20:00,76.5,68.7,29.54,WSW,248,0.9,1.1,77,0.00,,---,0.26,VWS V13.01,2013-04-13 22:20:00,
2013-04-13 18:25:00,76.5,68.7,29.53,SW,225,0.9,4.0,77,0.00,,---,0.26,VWS V13.01,2013-04-13 22:25:00,
2013-04-13 18:35:00,76.3,68.6,29.54,West,270,1.8,1.8,77,0.00,,---,0.26,VWS V13.01,2013-04-13 22:35:00,
2013-04-13 18:45:00,76.1,68.4,29.54,NW,315,0.2,0.2,77,0.00,,---,0.26,VWS V13.01,2013-04-13 22:45:00,
2013-04-13 18:50:00,76.1,68.0,29.54,North,0,3.1,3.1,76,0.00,,---,0.26,VWS V13.01,2013-04-13 22:50:00,
2013-04-13 18:55:00,75.9,67.8,29.54,North,0,0.0,3.1,76,0.00,,---,0.26,VWS V13.01,2013-04-13 22:55:00,
2013-04-13 19:05:00,75.9,67.8,29.55,WNW,292,0.0,0.0,76,0.00,,---,0.26,VWS V13.01,2013-04-13 23:05:00,
2013-04-13 19:10:00,75.9,67.8,29.54,WNW,292,0.0,0.0,76,0.00,,---,0.26,VWS V13.01,2013-04-13 23:10:00,
2013-04-13 19:20:00,75.7,67.6,29.55,WNW,292,0.0,0.0,76,0.00,,---,0.26,VWS V13.01,2013-04-13 23:20:00,
2013-04-13 19:30:00,75.9,68.2,29.54,WNW,292,0.0,0.0,77,0.00,,---,0.26,VWS V13.01,2013-04-13 23:30:00,
2013-04-13 19:40:00,75.7,68.0,29.55,WNW,292,0.0,0.0,77,0.00,,---,0.26,VWS V13.01,2013-04-13 23:40:00,
2013-04-13 19:45:00,75.7,68.0,29.55,WNW,292,0.0,0.0,77,0.00,,---,0.26,VWS V13.01,2013-04-13 23:45:00,
2013-04-13 19:55:00,75.6,67.8,29.55,WNW,292,0.0,0.0,77,0.00,,---,0.26,VWS V13.01,2013-04-13 23:55:00,
2013-04-13 20:00:00,75.6,68.2,29.55,WNW,292,0.0,0.0,78,0.00,,---,0.26,VWS V13.01,2013-04-14 00:00:00,
2013-04-13 20:10:00,75.4,68.1,29.55,WNW,292,0.0,0.0,78,0.00,,---,0.26,VWS V13.01,2013-04-14 00:10:00,
2013-04-13 20:20:00,75.4,68.1,29.55,WNW,292,0.0,0.0,78,0.00,,---,0.26,VWS V13.01,2013-04-14 00:20:00,
2013-04-13 20:25:00,75.4,68.1,29.55,SSW,202,0.0,0.0,78,0.00,,---,0.26,VWS V13.01,2013-04-14 00:25:00,
2013-04-13 20:35:00,75.0,67.7,29.56,South,180,0.0,0.0,78,0.00,,---,0.26,VWS V13.01,2013-04-14 00:35:00,
2013-04-13 20:40:00,75.0,67.7,29.56,SE,135,0.0,0.0,78,0.00,,---,0.26,VWS V13.01,2013-04-14 00:40:00,
2013-04-13 20:45:00,75.0,67.7,29.56,SE,135,0.0,0.0,78,0.00,,---,0.26,VWS V13.01,2013-04-14 00:45:00,
2013-04-13 20:55:00,75.0,67.7,29.57,SE,135,0.0,0.0,78,0.00,,---,0.26,VWS V13.01,2013-04-14 00:55:00,
2013-04-13 21:00:00,75.0,68.1,29.57,SE,135,0.9,0.9,79,0.00,,---,0.26,VWS V13.01,2013-04-14 01:00:00,
2013-04-13 21:10:00,75.0,68.1,29.58,SE,135,0.0,0.0,79,0.00,,---,0.26,VWS V13.01,2013-04-14 01:10:00,
2013-04-13 21:20:00,75.0,68.1,29.58,SE,135,0.0,1.1,79,0.00,,---,0.26,VWS V13.01,2013-04-14 01:20:00,
2013-04-13 21:30:00,75.0,68.1,29.57,SE,135,0.0,0.0,79,0.00,,---,0.26,VWS V13.01,2013-04-14 01:30:00,
2013-04-13 21:35:00,75.2,68.2,29.58,SE,135,0.0,0.0,79,0.00,,---,0.26,VWS V13.01,2013-04-14 01:35:00,
2013-04-13 21:45:00,75.2,68.6,29.59,SE,135,0.0,0.0,80,0.00,,---,0.26,VWS V13.01,2013-04-14 01:45:00,
2013-04-13 21:55:00,75.4,68.8,29.58,SE,135,0.0,0.0,80,0.00,,---,0.26,VWS V13.01,2013-04-14 01:55:00,
2013-04-13 22:00:00,75.4,68.8,29.59,SE,135,0.0,0.0,80,0.00,,---,0.26,VWS V13.01,2013-04-14 02:00:00,
2013-04-13 22:05:00,75.4,68.8,29.59,ESE,112,2.0,2.0,80,0.00,,---,0.26,VWS V13.01,2013-04-14 02:05:00,
2013-04-13 22:15:00,75.4,68.8,29.60,ESE,112,0.0,0.0,80,0.00,,---,0.26,VWS V13.01,2013-04-14 02:15:00,
2013-04-13 22:20:00,75.4,68.8,29.59,ESE,112,0.0,0.0,80,0.00,,---,0.26,VWS V13.01,2013-04-14 02:20:00,
2013-04-13 22:25:00,75.2,68.6,29.60,ESE,112,0.0,0.0,80,0.00,,---,0.26,VWS V13.01,2013-04-14 02:25:00,
2013-04-13 22:35:00,75.0,68.4,29.60,ESE,112,0.0,0.0,80,0.00,,---,0.26,VWS V13.01,2013-04-14 02:35:00,
2013-04-13 22:45:00,75.0,68.4,29.59,ESE,112,0.0,0.0,80,0.00,,---,0.26,VWS V13.01,2013-04-14 02:45:00,
2013-04-13 22:55:00,75.0,68.4,29.59,ESE,112,0.0,0.0,80,0.00,,---,0.26,VWS V13.01,2013-04-14 02:55:00,
2013-04-13 23:05:00,74.8,68.3,29.60,ESE,112,0.0,0.0,80,0.00,,---,0.26,VWS V13.01,2013-04-14 03:05:00,
2013-04-13 23:15:00,74.8,68.3,29.60,ESE,112,0.0,0.0,80,0.00,,---,0.26,VWS V13.01,2013-04-14 03:15:00,
2013-04-13 23:25:00,74.5,67.9,29.60,ESE,112,0.0,0.0,80,0.00,,---,0.26,VWS V13.01,2013-04-14 03:25:00,
2013-04-13 23:35:00,74.5,67.9,29.60,ESE,112,0.0,0.0,80,0.00,,---,0.26,VWS V13.01,2013-04-14 03:35:00,
2013-04-13 23:40:00,74.5,67.9,29.60,ESE,112,0.0,0.0,80,0.00,,---,0.26,VWS V13.01,2013-04-14 03:40:00,
2013-04-13 23:50:00,74.3,67.7,29.60,ESE,112,0.0,0.0,80,0.00,,---,0.26,VWS V13.01,2013-04-14 03:50:00,
2013-04-13 23:55:00,74.1,67.6,29.60,ESE,112,0.0,0.0,80,0.00,,---,0.26,VWS V13.01,2013-04-14 03:55:00,